sensor_id;sensor_type;location;lat;lon;timestamp;pressure;altitude;pressure_sealevel;temperature;humidity
76827;BME280;65788;52.284;20.890;2023-03-23T00:00:00;99711.45;;;19.55;40.89
76827;BME280;65788;52.284;20.890;2023-03-23T00:02:29;99707.43;;;19.57;40.93
76827;BME280;65788;52.284;20.890;2023-03-23T00:05:02;99705.31;;;19.54;40.80
76827;BME280;65788;52.284;20.890;2023-03-23T00:07:30;99702.95;;;19.52;40.92
76827;BME280;65788;52.284;20.890;2023-03-23T00:09:59;99706.61;;;19.52;40.82
76827;BME280;65788;52.284;20.890;2023-03-23T00:12:31;99704.95;;;19.53;40.91
76827;BME280;65788;52.284;20.890;2023-03-23T00:15:07;99698.86;;;19.51;40.96
76827;BME280;65788;52.284;20.890;2023-03-23T00:17:34;99698.22;;;19.52;40.95
76827;BME280;65788;52.284;20.890;2023-03-23T00:20:03;99702.48;;;19.52;40.87
76827;BME280;65788;52.284;20.890;2023-03-23T00:22:33;99701.19;;;19.51;40.91
76827;BME280;65788;52.284;20.890;2023-03-23T00:25:05;99698.58;;;19.51;40.84
76827;BME280;65788;52.284;20.890;2023-03-23T00:27:32;99696.35;;;19.48;40.91
76827;BME280;65788;52.284;20.890;2023-03-23T00:29:59;99693.39;;;19.49;40.88
76827;BME280;65788;52.284;20.890;2023-03-23T00:32:28;99688.98;;;19.48;40.91
76827;BME280;65788;52.284;20.890;2023-03-23T00:34:56;99686.70;;;19.46;40.96
76827;BME280;65788;52.284;20.890;2023-03-23T00:37:27;99685.75;;;19.48;40.96
76827;BME280;65788;52.284;20.890;2023-03-23T00:39:54;99681.17;;;19.47;40.91
76827;BME280;65788;52.284;20.890;2023-03-23T00:42:25;99677.72;;;19.47;41.00
76827;BME280;65788;52.284;20.890;2023-03-23T00:44:54;99681.45;;;19.47;40.91
76827;BME280;65788;52.284;20.890;2023-03-23T00:47:28;99688.81;;;19.44;41.13
76827;BME280;65788;52.284;20.890;2023-03-23T00:49:55;99681.48;;;19.42;41.04
76827;BME280;65788;52.284;20.890;2023-03-23T00:52:26;99680.40;;;19.43;40.85
76827;BME280;65788;52.284;20.890;2023-03-23T00:54:53;99680.48;;;19.42;41.00
76827;BME280;65788;52.284;20.890;2023-03-23T00:57:21;99675.45;;;19.39;41.17
76827;BME280;65788;52.284;20.890;2023-03-23T00:59:52;99676.80;;;19.40;41.21
76827;BME280;65788;52.284;20.890;2023-03-23T01:02:19;99668.23;;;19.41;41.06
76827;BME280;65788;52.284;20.890;2023-03-23T01:04:46;99671.69;;;19.40;41.12
76827;BME280;65788;52.284;20.890;2023-03-23T01:07:20;99671.58;;;19.40;41.08
76827;BME280;65788;52.284;20.890;2023-03-23T01:09:49;99666.15;;;19.40;41.06
76827;BME280;65788;52.284;20.890;2023-03-23T01:12:21;99664.41;;;19.39;41.01
76827;BME280;65788;52.284;20.890;2023-03-23T01:14:50;99657.59;;;19.39;41.09
76827;BME280;65788;52.284;20.890;2023-03-23T01:17:20;99666.96;;;19.39;41.08
76827;BME280;65788;52.284;20.890;2023-03-23T01:19:47;99668.88;;;19.38;41.12
76827;BME280;65788;52.284;20.890;2023-03-23T01:22:14;99671.25;;;19.36;41.06
76827;BME280;65788;52.284;20.890;2023-03-23T01:24:42;99671.02;;;19.35;41.23
76827;BME280;65788;52.284;20.890;2023-03-23T01:27:09;99675.57;;;19.35;41.21
76827;BME280;65788;52.284;20.890;2023-03-23T01:29:36;99676.05;;;19.35;41.41
76827;BME280;65788;52.284;20.890;2023-03-23T01:32:05;99675.45;;;19.33;41.26
76827;BME280;65788;52.284;20.890;2023-03-23T01:34:32;99674.72;;;19.30;41.36
76827;BME280;65788;52.284;20.890;2023-03-23T01:36:59;99678.40;;;19.33;41.30
76827;BME280;65788;52.284;20.890;2023-03-23T01:39:27;99675.77;;;19.32;41.34
76827;BME280;65788;52.284;20.890;2023-03-23T01:41:54;99667.88;;;19.32;41.34
76827;BME280;65788;52.284;20.890;2023-03-23T01:46:50;99666.33;;;19.29;41.35
76827;BME280;65788;52.284;20.890;2023-03-23T01:49:21;99663.94;;;19.27;41.47
76827;BME280;65788;52.284;20.890;2023-03-23T01:51:58;99657.20;;;19.29;41.33
76827;BME280;65788;52.284;20.890;2023-03-23T01:54:28;99652.02;;;19.30;41.46
76827;BME280;65788;52.284;20.890;2023-03-23T01:57:01;99653.23;;;19.29;41.36
76827;BME280;65788;52.284;20.890;2023-03-23T01:59:31;99646.74;;;19.30;41.35
76827;BME280;65788;52.284;20.890;2023-03-23T02:02:01;99647.17;;;19.29;41.31
76827;BME280;65788;52.284;20.890;2023-03-23T02:04:30;99642.80;;;19.25;41.38
76827;BME280;65788;52.284;20.890;2023-03-23T02:06:58;99646.15;;;19.24;41.51
76827;BME280;65788;52.284;20.890;2023-03-23T02:09:30;99644.54;;;19.26;41.47
76827;BME280;65788;52.284;20.890;2023-03-23T02:11:57;99638.95;;;19.26;41.44
76827;BME280;65788;52.284;20.890;2023-03-23T02:14:26;99638.28;;;19.26;41.44
76827;BME280;65788;52.284;20.890;2023-03-23T02:25:13;99634.20;;;19.20;41.63
76827;BME280;65788;52.284;20.890;2023-03-23T02:28:06;99632.06;;;19.21;41.41
76827;BME280;65788;52.284;20.890;2023-03-23T02:30:50;99627.88;;;19.20;41.47
76827;BME280;65788;52.284;20.890;2023-03-23T02:36:03;99622.36;;;19.20;41.55
76827;BME280;65788;52.284;20.890;2023-03-23T02:41:11;99624.16;;;19.18;41.66
76827;BME280;65788;52.284;20.890;2023-03-23T02:43:43;99622.90;;;19.19;41.52
76827;BME280;65788;52.284;20.890;2023-03-23T02:46:13;99630.77;;;19.18;41.46
76827;BME280;65788;52.284;20.890;2023-03-23T02:48:43;99633.90;;;19.19;41.50
76827;BME280;65788;52.284;20.890;2023-03-23T02:51:12;99638.58;;;19.15;41.66
76827;BME280;65788;52.284;20.890;2023-03-23T02:53:41;99633.48;;;19.15;41.60
76827;BME280;65788;52.284;20.890;2023-03-23T02:56:12;99634.63;;;19.17;41.58
76827;BME280;65788;52.284;20.890;2023-03-23T02:58:40;99635.73;;;19.15;41.59
76827;BME280;65788;52.284;20.890;2023-03-23T03:04:09;99640.14;;;19.14;41.57
76827;BME280;65788;52.284;20.890;2023-03-23T03:14:57;99636.84;;;19.12;41.52
76827;BME280;65788;52.284;20.890;2023-03-23T03:17:34;99633.65;;;19.14;41.81
76827;BME280;65788;52.284;20.890;2023-03-23T03:20:10;99633.77;;;19.12;41.84
76827;BME280;65788;52.284;20.890;2023-03-23T03:22:43;99636.30;;;19.08;41.78
76827;BME280;65788;52.284;20.890;2023-03-23T03:25:14;99633.63;;;19.11;41.90
76827;BME280;65788;52.284;20.890;2023-03-23T03:27:45;99637.27;;;19.10;41.70
76827;BME280;65788;52.284;20.890;2023-03-23T03:30:20;99637.88;;;19.07;41.81
76827;BME280;65788;52.284;20.890;2023-03-23T03:32:50;99641.11;;;19.06;41.79
76827;BME280;65788;52.284;20.890;2023-03-23T03:35:22;99644.58;;;19.06;41.60
76827;BME280;65788;52.284;20.890;2023-03-23T03:37:50;99645.48;;;19.09;41.72
76827;BME280;65788;52.284;20.890;2023-03-23T03:40:21;99648.28;;;19.06;41.77
76827;BME280;65788;52.284;20.890;2023-03-23T03:42:49;99647.08;;;19.04;41.80
76827;BME280;65788;52.284;20.890;2023-03-23T03:45:19;99647.41;;;19.02;41.92
76827;BME280;65788;52.284;20.890;2023-03-23T03:47:46;99644.97;;;19.02;41.82
76827;BME280;65788;52.284;20.890;2023-03-23T03:50:14;99642.03;;;19.02;41.81
76827;BME280;65788;52.284;20.890;2023-03-23T03:52:44;99635.02;;;19.01;41.76
76827;BME280;65788;52.284;20.890;2023-03-23T03:55:11;99626.67;;;19.00;41.84
76827;BME280;65788;52.284;20.890;2023-03-23T03:57:38;99626.93;;;19.00;41.84
76827;BME280;65788;52.284;20.890;2023-03-23T04:00:09;99619.43;;;18.99;41.88
76827;BME280;65788;52.284;20.890;2023-03-23T04:02:46;99619.60;;;18.97;41.87
76827;BME280;65788;52.284;20.890;2023-03-23T04:05:22;99617.67;;;18.97;41.74
76827;BME280;65788;52.284;20.890;2023-03-23T04:07:50;99619.61;;;18.98;42.02
76827;BME280;65788;52.284;20.890;2023-03-23T04:10:20;99623.89;;;18.98;42.36
76827;BME280;65788;52.284;20.890;2023-03-23T04:12:51;99623.44;;;18.97;42.90
76827;BME280;65788;52.284;20.890;2023-03-23T04:15:19;99622.15;;;18.97;42.94
76827;BME280;65788;52.284;20.890;2023-03-23T04:17:48;99624.15;;;18.97;42.97
76827;BME280;65788;52.284;20.890;2023-03-23T04:20:15;99628.02;;;18.97;42.95
76827;BME280;65788;52.284;20.890;2023-03-23T04:22:46;99624.27;;;18.98;43.08
76827;BME280;65788;52.284;20.890;2023-03-23T04:25:18;99619.58;;;18.98;43.11
76827;BME280;65788;52.284;20.890;2023-03-23T04:27:50;99615.27;;;18.97;43.09
76827;BME280;65788;52.284;20.890;2023-03-23T04:30:21;99621.86;;;18.99;43.14
76827;BME280;65788;52.284;20.890;2023-03-23T04:32:51;99626.40;;;18.98;43.31
76827;BME280;65788;52.284;20.890;2023-03-23T04:35:20;99622.66;;;18.97;43.24
76827;BME280;65788;52.284;20.890;2023-03-23T04:37:48;99615.66;;;18.97;43.37
76827;BME280;65788;52.284;20.890;2023-03-23T04:40:19;99616.87;;;18.97;43.27
76827;BME280;65788;52.284;20.890;2023-03-23T04:42:47;99620.40;;;18.94;43.35
76827;BME280;65788;52.284;20.890;2023-03-23T04:45:18;99614.29;;;18.95;43.29
76827;BME280;65788;52.284;20.890;2023-03-23T04:47:51;99617.79;;;18.96;43.13
76827;BME280;65788;52.284;20.890;2023-03-23T04:50:29;99610.39;;;18.94;43.35
76827;BME280;65788;52.284;20.890;2023-03-23T04:52:57;99608.11;;;18.98;43.24
76827;BME280;65788;52.284;20.890;2023-03-23T04:55:26;99610.63;;;19.04;43.02
76827;BME280;65788;52.284;20.890;2023-03-23T04:57:53;99609.86;;;19.07;43.01
76827;BME280;65788;52.284;20.890;2023-03-23T05:00:20;99611.73;;;19.11;42.88
76827;BME280;65788;52.284;20.890;2023-03-23T05:02:49;99608.02;;;19.18;42.78
76827;BME280;65788;52.284;20.890;2023-03-23T05:05:20;99606.17;;;19.26;42.49
76827;BME280;65788;52.284;20.890;2023-03-23T05:07:48;99599.03;;;19.36;42.33
76827;BME280;65788;52.284;20.890;2023-03-23T05:10:16;99602.42;;;19.45;42.08
76827;BME280;65788;52.284;20.890;2023-03-23T05:12:43;99600.46;;;19.51;41.95
76827;BME280;65788;52.284;20.890;2023-03-23T05:15:14;99592.71;;;19.57;41.73
76827;BME280;65788;52.284;20.890;2023-03-23T05:17:42;99592.53;;;19.64;41.63
76827;BME280;65788;52.284;20.890;2023-03-23T05:20:14;99598.50;;;19.70;41.49
76827;BME280;65788;52.284;20.890;2023-03-23T05:22:44;99597.94;;;19.78;41.39
76827;BME280;65788;52.284;20.890;2023-03-23T05:25:17;99591.23;;;19.85;41.30
76827;BME280;65788;52.284;20.890;2023-03-23T05:27:47;99588.66;;;19.90;41.21
76827;BME280;65788;52.284;20.890;2023-03-23T05:30:21;99587.80;;;19.96;40.94
76827;BME280;65788;52.284;20.890;2023-03-23T05:32:48;99593.59;;;20.02;40.92
76827;BME280;65788;52.284;20.890;2023-03-23T05:35:20;99598.14;;;20.07;40.94
76827;BME280;65788;52.284;20.890;2023-03-23T05:37:47;99600.30;;;20.10;40.79
76827;BME280;65788;52.284;20.890;2023-03-23T05:40:14;99599.56;;;20.17;40.58
76827;BME280;65788;52.284;20.890;2023-03-23T05:42:42;99603.59;;;20.19;40.43
76827;BME280;65788;52.284;20.890;2023-03-23T05:45:10;99604.95;;;20.22;40.59
76827;BME280;65788;52.284;20.890;2023-03-23T05:47:40;99607.38;;;20.27;40.50
76827;BME280;65788;52.284;20.890;2023-03-23T05:50:09;99604.74;;;20.29;40.38
76827;BME280;65788;52.284;20.890;2023-03-23T05:52:37;99605.16;;;20.30;40.46
76827;BME280;65788;52.284;20.890;2023-03-23T05:55:08;99607.71;;;20.30;40.47
76827;BME280;65788;52.284;20.890;2023-03-23T05:57:35;99609.59;;;20.30;40.47
76827;BME280;65788;52.284;20.890;2023-03-23T06:00:04;99608.45;;;20.28;40.32
76827;BME280;65788;52.284;20.890;2023-03-23T06:02:54;99615.63;;;20.26;40.59
76827;BME280;65788;52.284;20.890;2023-03-23T06:05:21;99616.45;;;20.25;40.71
76827;BME280;65788;52.284;20.890;2023-03-23T06:07:50;99617.59;;;20.24;40.64
76827;BME280;65788;52.284;20.890;2023-03-23T06:10:17;99614.07;;;20.23;40.60
76827;BME280;65788;52.284;20.890;2023-03-23T06:12:44;99612.61;;;20.19;40.84
76827;BME280;65788;52.284;20.890;2023-03-23T06:15:13;99611.29;;;20.19;40.82
76827;BME280;65788;52.284;20.890;2023-03-23T06:17:41;99611.88;;;20.19;40.66
76827;BME280;65788;52.284;20.890;2023-03-23T06:20:11;99612.44;;;20.19;40.62
76827;BME280;65788;52.284;20.890;2023-03-23T06:22:39;99612.30;;;20.20;40.59
76827;BME280;65788;52.284;20.890;2023-03-23T06:25:08;99613.41;;;20.20;41.04
76827;BME280;65788;52.284;20.890;2023-03-23T06:27:37;99612.82;;;20.21;41.31
76827;BME280;65788;52.284;20.890;2023-03-23T06:30:04;99616.96;;;20.20;41.57
76827;BME280;65788;52.284;20.890;2023-03-23T06:32:32;99616.83;;;20.20;41.44
76827;BME280;65788;52.284;20.890;2023-03-23T06:35:01;99619.81;;;20.19;41.35
76827;BME280;65788;52.284;20.890;2023-03-23T06:37:30;99620.39;;;20.19;41.33
76827;BME280;65788;52.284;20.890;2023-03-23T06:39:57;99619.17;;;20.20;41.39
76827;BME280;65788;52.284;20.890;2023-03-23T06:42:25;99611.02;;;20.20;41.34
76827;BME280;65788;52.284;20.890;2023-03-23T06:44:55;99604.77;;;20.20;41.33
76827;BME280;65788;52.284;20.890;2023-03-23T06:47:25;99605.77;;;20.22;41.27
76827;BME280;65788;52.284;20.890;2023-03-23T06:49:53;99602.77;;;20.22;41.38
76827;BME280;65788;52.284;20.890;2023-03-23T06:52:20;99606.83;;;20.26;41.30
76827;BME280;65788;52.284;20.890;2023-03-23T06:54:49;99607.23;;;20.34;41.25
76827;BME280;65788;52.284;20.890;2023-03-23T06:57:16;99612.27;;;20.45;40.94
76827;BME280;65788;52.284;20.890;2023-03-23T06:59:44;99615.21;;;20.54;40.76
76827;BME280;65788;52.284;20.890;2023-03-23T07:02:13;99616.53;;;20.62;40.66
76827;BME280;65788;52.284;20.890;2023-03-23T07:04:41;99620.23;;;20.69;40.46
76827;BME280;65788;52.284;20.890;2023-03-23T07:07:10;99620.53;;;20.75;40.36
76827;BME280;65788;52.284;20.890;2023-03-23T07:09:40;99617.98;;;20.79;40.16
76827;BME280;65788;52.284;20.890;2023-03-23T07:12:10;99617.25;;;20.85;40.22
76827;BME280;65788;52.284;20.890;2023-03-23T07:14:36;99619.79;;;20.87;40.12
76827;BME280;65788;52.284;20.890;2023-03-23T07:17:04;99622.38;;;20.88;40.08
76827;BME280;65788;52.284;20.890;2023-03-23T07:19:32;99621.56;;;20.89;39.95
76827;BME280;65788;52.284;20.890;2023-03-23T07:21:59;99626.73;;;20.89;40.05
76827;BME280;65788;52.284;20.890;2023-03-23T07:24:28;99630.55;;;20.89;40.22
76827;BME280;65788;52.284;20.890;2023-03-23T07:26:56;99625.85;;;20.87;40.15
76827;BME280;65788;52.284;20.890;2023-03-23T07:29:23;99627.73;;;20.87;40.09
76827;BME280;65788;52.284;20.890;2023-03-23T07:31:50;99630.69;;;20.87;40.10
76827;BME280;65788;52.284;20.890;2023-03-23T07:34:20;99633.66;;;20.92;39.88
76827;BME280;65788;52.284;20.890;2023-03-23T07:36:47;99634.23;;;20.95;39.91
76827;BME280;65788;52.284;20.890;2023-03-23T07:39:14;99635.68;;;20.96;39.93
76827;BME280;65788;52.284;20.890;2023-03-23T07:41:43;99630.67;;;20.98;39.82
76827;BME280;65788;52.284;20.890;2023-03-23T07:44:10;99635.35;;;20.99;39.80
76827;BME280;65788;52.284;20.890;2023-03-23T07:46:37;99632.84;;;20.96;40.11
76827;BME280;65788;52.284;20.890;2023-03-23T07:49:05;99630.60;;;20.98;40.13
76827;BME280;65788;52.284;20.890;2023-03-23T07:51:32;99628.37;;;20.94;40.07
76827;BME280;65788;52.284;20.890;2023-03-23T07:54:00;99629.57;;;20.93;40.37
76827;BME280;65788;52.284;20.890;2023-03-23T07:56:31;99630.81;;;20.94;40.25
76827;BME280;65788;52.284;20.890;2023-03-23T07:58:57;99626.41;;;20.94;40.25
76827;BME280;65788;52.284;20.890;2023-03-23T08:01:24;99626.73;;;20.96;40.32
76827;BME280;65788;52.284;20.890;2023-03-23T08:03:52;99622.34;;;21.00;40.22
76827;BME280;65788;52.284;20.890;2023-03-23T08:06:20;99624.40;;;21.06;40.20
76827;BME280;65788;52.284;20.890;2023-03-23T08:08:52;99623.42;;;21.07;40.28
76827;BME280;65788;52.284;20.890;2023-03-23T08:11:20;99623.63;;;21.10;40.17
76827;BME280;65788;52.284;20.890;2023-03-23T08:13:50;99619.83;;;21.09;40.19
76827;BME280;65788;52.284;20.890;2023-03-23T08:16:17;99614.61;;;21.11;40.17
76827;BME280;65788;52.284;20.890;2023-03-23T08:18:45;99613.88;;;21.13;40.10
76827;BME280;65788;52.284;20.890;2023-03-23T08:21:14;99612.04;;;21.12;40.03
76827;BME280;65788;52.284;20.890;2023-03-23T08:23:41;99608.29;;;21.11;40.10
76827;BME280;65788;52.284;20.890;2023-03-23T08:26:13;99605.55;;;21.07;40.25
76827;BME280;65788;52.284;20.890;2023-03-23T08:28:41;99599.08;;;21.05;40.19
76827;BME280;65788;52.284;20.890;2023-03-23T08:31:13;99583.42;;;21.07;40.10
76827;BME280;65788;52.284;20.890;2023-03-23T08:33:40;99586.00;;;21.09;40.11
76827;BME280;65788;52.284;20.890;2023-03-23T08:36:10;99591.21;;;21.08;40.27
76827;BME280;65788;52.284;20.890;2023-03-23T08:38:38;99588.30;;;21.11;40.00
76827;BME280;65788;52.284;20.890;2023-03-23T08:41:06;99589.85;;;21.13;39.85
76827;BME280;65788;52.284;20.890;2023-03-23T08:43:35;99585.30;;;21.11;39.91
76827;BME280;65788;52.284;20.890;2023-03-23T08:46:02;99590.23;;;21.09;39.96
76827;BME280;65788;52.284;20.890;2023-03-23T08:48:34;99591.04;;;21.07;39.90
76827;BME280;65788;52.284;20.890;2023-03-23T08:51:03;99593.71;;;21.08;39.90
76827;BME280;65788;52.284;20.890;2023-03-23T08:53:31;99586.52;;;21.08;39.77
76827;BME280;65788;52.284;20.890;2023-03-23T08:56:04;99591.15;;;21.07;39.81
76827;BME280;65788;52.284;20.890;2023-03-23T08:58:31;99586.84;;;21.05;39.70
76827;BME280;65788;52.284;20.890;2023-03-23T09:00:59;99591.99;;;21.05;39.91
76827;BME280;65788;52.284;20.890;2023-03-23T09:03:27;99595.76;;;21.03;39.80
76827;BME280;65788;52.284;20.890;2023-03-23T09:06:01;99597.72;;;21.00;39.79
76827;BME280;65788;52.284;20.890;2023-03-23T09:08:29;99601.23;;;20.98;39.89
76827;BME280;65788;52.284;20.890;2023-03-23T09:11:04;99604.85;;;20.99;39.84
76827;BME280;65788;52.284;20.890;2023-03-23T09:13:36;99596.88;;;20.97;39.87
76827;BME280;65788;52.284;20.890;2023-03-23T09:16:05;99593.92;;;20.96;39.71
76827;BME280;65788;52.284;20.890;2023-03-23T09:18:34;99588.20;;;20.97;39.77
76827;BME280;65788;52.284;20.890;2023-03-23T09:21:02;99587.98;;;20.96;39.88
76827;BME280;65788;52.284;20.890;2023-03-23T09:23:32;99590.48;;;20.97;39.71
76827;BME280;65788;52.284;20.890;2023-03-23T09:26:01;99589.46;;;20.97;39.78
76827;BME280;65788;52.284;20.890;2023-03-23T09:28:30;99590.34;;;20.96;39.77
76827;BME280;65788;52.284;20.890;2023-03-23T09:30:58;99590.97;;;20.96;39.69
76827;BME280;65788;52.284;20.890;2023-03-23T09:33:26;99587.25;;;20.96;39.64
76827;BME280;65788;52.284;20.890;2023-03-23T09:35:55;99582.29;;;20.96;39.58
76827;BME280;65788;52.284;20.890;2023-03-23T09:38:21;99577.16;;;20.96;39.70
76827;BME280;65788;52.284;20.890;2023-03-23T09:43:59;99568.33;;;20.96;39.74
76827;BME280;65788;52.284;20.890;2023-03-23T09:49:22;99558.09;;;21.06;39.38
76827;BME280;65788;52.284;20.890;2023-03-23T09:52:08;99552.63;;;21.10;39.35
76827;BME280;65788;52.284;20.890;2023-03-23T09:54:49;99551.18;;;21.10;39.15
76827;BME280;65788;52.284;20.890;2023-03-23T09:58:31;99551.81;;;21.11;39.28
76827;BME280;65788;52.284;20.890;2023-03-23T10:03:40;99550.02;;;21.17;39.20
76827;BME280;65788;52.284;20.890;2023-03-23T10:06:12;99549.23;;;21.20;39.07
76827;BME280;65788;52.284;20.890;2023-03-23T10:08:47;99544.19;;;21.15;39.09
76827;BME280;65788;52.284;20.890;2023-03-23T10:11:36;99541.33;;;21.13;39.14
76827;BME280;65788;52.284;20.890;2023-03-23T10:14:12;99546.63;;;21.10;39.24
76827;BME280;65788;52.284;20.890;2023-03-23T10:17:09;99538.48;;;21.12;39.12
76827;BME280;65788;52.284;20.890;2023-03-23T10:19:49;99531.57;;;21.12;39.16
76827;BME280;65788;52.284;20.890;2023-03-23T10:22:31;99528.48;;;21.10;39.19
76827;BME280;65788;52.284;20.890;2023-03-23T10:25:08;99523.60;;;21.15;39.08
76827;BME280;65788;52.284;20.890;2023-03-23T10:27:48;99519.48;;;21.21;38.86
76827;BME280;65788;52.284;20.890;2023-03-23T10:30:22;99523.23;;;21.28;38.62
76827;BME280;65788;52.284;20.890;2023-03-23T10:32:54;99526.17;;;21.35;38.56
76827;BME280;65788;52.284;20.890;2023-03-23T10:35:30;99520.30;;;21.37;38.73
76827;BME280;65788;52.284;20.890;2023-03-23T10:38:03;99523.09;;;21.38;38.51
76827;BME280;65788;52.284;20.890;2023-03-23T10:40:32;99524.05;;;21.34;38.58
76827;BME280;65788;52.284;20.890;2023-03-23T10:43:02;99528.38;;;21.33;38.57
76827;BME280;65788;52.284;20.890;2023-03-23T10:45:30;99523.36;;;21.37;38.47
76827;BME280;65788;52.284;20.890;2023-03-23T10:50:39;99526.60;;;21.41;38.27
76827;BME280;65788;52.284;20.890;2023-03-23T10:54:07;99522.67;;;21.43;38.29
76827;BME280;65788;52.284;20.890;2023-03-23T10:56:05;99524.80;;;21.35;38.30
76827;BME280;65788;52.284;20.890;2023-03-23T10:58:34;99522.67;;;21.39;38.24
76827;BME280;65788;52.284;20.890;2023-03-23T11:01:04;99522.03;;;21.37;38.27
76827;BME280;65788;52.284;20.890;2023-03-23T11:06:07;99519.61;;;21.31;38.29
76827;BME280;65788;52.284;20.890;2023-03-23T11:08:46;99515.78;;;21.28;38.37
76827;BME280;65788;52.284;20.890;2023-03-23T11:11:17;99511.79;;;21.25;38.36
76827;BME280;65788;52.284;20.890;2023-03-23T11:13:47;99504.36;;;21.22;38.48
76827;BME280;65788;52.284;20.890;2023-03-23T11:16:49;99500.59;;;21.28;38.50
76827;BME280;65788;52.284;20.890;2023-03-23T11:19:34;99498.23;;;21.26;38.37
76827;BME280;65788;52.284;20.890;2023-03-23T11:22:08;99497.29;;;21.27;38.38
76827;BME280;65788;52.284;20.890;2023-03-23T11:24:44;99489.77;;;21.25;38.39
76827;BME280;65788;52.284;20.890;2023-03-23T11:27:14;99494.36;;;21.29;38.35
76827;BME280;65788;52.284;20.890;2023-03-23T11:29:52;99490.17;;;21.36;38.03
76827;BME280;65788;52.284;20.890;2023-03-23T11:32:26;99483.88;;;21.39;37.95
76827;BME280;65788;52.284;20.890;2023-03-23T11:35:05;99482.86;;;21.47;37.80
76827;BME280;65788;52.284;20.890;2023-03-23T11:37:41;99486.38;;;21.48;37.80
76827;BME280;65788;52.284;20.890;2023-03-23T11:40:18;99475.02;;;21.47;37.79
76827;BME280;65788;52.284;20.890;2023-03-23T11:43:08;99463.95;;;21.51;38.47
76827;BME280;65788;52.284;20.890;2023-03-23T11:45:40;99447.01;;;21.53;37.87
76827;BME280;65788;52.284;20.890;2023-03-23T11:48:38;99441.41;;;21.59;37.42
76827;BME280;65788;52.284;20.890;2023-03-23T11:51:13;99444.48;;;21.61;36.69
76827;BME280;65788;52.284;20.890;2023-03-23T11:58:55;99447.58;;;21.59;37.09
76827;BME280;65788;52.284;20.890;2023-03-23T12:18:37;99419.04;;;21.57;36.73
76827;BME280;65788;52.284;20.890;2023-03-23T12:23:43;99407.63;;;21.54;36.63
76827;BME280;65788;52.284;20.890;2023-03-23T12:26:37;99411.66;;;21.64;37.04
76827;BME280;65788;52.284;20.890;2023-03-23T12:29:24;99403.32;;;21.64;36.62
76827;BME280;65788;52.284;20.890;2023-03-23T12:32:20;99411.19;;;21.67;36.82
76827;BME280;65788;52.284;20.890;2023-03-23T12:48:39;99411.33;;;21.65;36.85
76827;BME280;65788;52.284;20.890;2023-03-23T12:51:32;99413.99;;;21.74;36.70
76827;BME280;65788;52.284;20.890;2023-03-23T13:03:05;99406.96;;;21.88;36.64
76827;BME280;65788;52.284;20.890;2023-03-23T13:10:33;99403.13;;;21.78;36.83
76827;BME280;65788;52.284;20.890;2023-03-23T13:13:03;99404.86;;;21.78;36.65
76827;BME280;65788;52.284;20.890;2023-03-23T13:23:42;99398.61;;;21.73;36.75
76827;BME280;65788;52.284;20.890;2023-03-23T13:26:22;99397.16;;;21.72;36.80
76827;BME280;65788;52.284;20.890;2023-03-23T13:29:00;99404.32;;;21.70;37.02
76827;BME280;65788;52.284;20.890;2023-03-23T13:31:34;99397.16;;;21.61;36.89
76827;BME280;65788;52.284;20.890;2023-03-23T13:34:24;99398.16;;;21.66;36.70
76827;BME280;65788;52.284;20.890;2023-03-23T13:36:59;99401.60;;;21.65;36.75
76827;BME280;65788;52.284;20.890;2023-03-23T13:39:30;99405.95;;;21.61;37.11
76827;BME280;65788;52.284;20.890;2023-03-23T13:42:02;99403.75;;;21.64;37.01
76827;BME280;65788;52.284;20.890;2023-03-23T13:50:09;99411.14;;;21.53;37.33
76827;BME280;65788;52.284;20.890;2023-03-23T14:06:18;99442.55;;;21.19;37.43
76827;BME280;65788;52.284;20.890;2023-03-23T14:08:40;99444.66;;;21.20;37.29
76827;BME280;65788;52.284;20.890;2023-03-23T14:11:17;99451.48;;;21.19;37.54
76827;BME280;65788;52.284;20.890;2023-03-23T14:16:27;99455.63;;;21.12;37.54
76827;BME280;65788;52.284;20.890;2023-03-23T14:19:00;99455.92;;;21.09;37.60
76827;BME280;65788;52.284;20.890;2023-03-23T14:21:49;99457.28;;;21.06;37.69
76827;BME280;65788;52.284;20.890;2023-03-23T14:24:22;99463.79;;;21.06;37.66
76827;BME280;65788;52.284;20.890;2023-03-23T14:27:14;99467.95;;;21.07;37.60
76827;BME280;65788;52.284;20.890;2023-03-23T14:29:39;99468.20;;;21.04;37.71
76827;BME280;65788;52.284;20.890;2023-03-23T14:32:07;99468.52;;;21.02;37.73
76827;BME280;65788;52.284;20.890;2023-03-23T14:34:38;99476.74;;;20.99;37.70
76827;BME280;65788;52.284;20.890;2023-03-23T14:37:11;99475.27;;;20.96;37.74
76827;BME280;65788;52.284;20.890;2023-03-23T14:39:43;99479.05;;;20.96;37.83
76827;BME280;65788;52.284;20.890;2023-03-23T14:42:12;99484.90;;;20.93;38.09
76827;BME280;65788;52.284;20.890;2023-03-23T14:44:43;99479.23;;;20.94;38.15
76827;BME280;65788;52.284;20.890;2023-03-23T14:47:21;99481.98;;;20.91;38.06
76827;BME280;65788;52.284;20.890;2023-03-23T14:49:56;99479.46;;;20.90;38.00
76827;BME280;65788;52.284;20.890;2023-03-23T14:52:34;99480.07;;;20.90;37.97
76827;BME280;65788;52.284;20.890;2023-03-23T14:57:41;99486.80;;;20.84;38.22
76827;BME280;65788;52.284;20.890;2023-03-23T15:00:17;99491.64;;;20.83;38.18
76827;BME280;65788;52.284;20.890;2023-03-23T15:02:49;99484.70;;;20.83;38.13
76827;BME280;65788;52.284;20.890;2023-03-23T15:05:28;99489.23;;;20.83;38.27
76827;BME280;65788;52.284;20.890;2023-03-23T15:08:03;99491.00;;;20.81;38.14
76827;BME280;65788;52.284;20.890;2023-03-23T15:10:32;99494.35;;;20.79;38.42
76827;BME280;65788;52.284;20.890;2023-03-23T15:13:01;99496.33;;;20.77;38.24
76827;BME280;65788;52.284;20.890;2023-03-23T15:15:33;99490.45;;;20.75;38.32
76827;BME280;65788;52.284;20.890;2023-03-23T15:18:02;99488.36;;;20.75;38.46